Time;durP1;ratioP1;P1;durP2;ratioP2;P2;SDS_P1;SDS_P2;PMS_P1;PMS_P2;Temp;Humidity;BMP_temperature;BMP_pressure;BME280_temperature;BME280_humidity;BME280_pressure;Samples;Min_cycle;Max_cycle;Signal;HPM_P1;HPM_P2
2022/08/19 00:00:03;;;;;;;25.40;17.60;;;21.00;99.90;;;;;;5014828;28;20967;-77
2022/08/19 00:02:30;;;;;;;25.90;18.17;;;21.00;99.90;;;;;;5014696;28;20471;-76
2022/08/19 00:04:56;;;;;;;26.00;17.83;;;21.00;99.90;;;;;;5014869;28;20501;-77
2022/08/19 00:07:23;;;;;;;25.23;16.83;;;21.00;99.90;;;;;;5014497;28;20537;-77
2022/08/19 00:09:50;;;;;;;23.00;17.37;;;21.00;99.90;;;;;;5014409;28;20947;-77
2022/08/19 00:12:18;;;;;;;24.38;18.20;;;21.00;99.90;;;;;;5014178;28;20506;-77
2022/08/19 00:14:44;;;;;;;28.13;17.47;;;21.00;99.90;;;;;;5014684;28;20271;-77
2022/08/19 00:17:11;;;;;;;23.83;18.20;;;21.00;99.90;;;;;;5014310;28;20451;-77
2022/08/19 00:19:38;;;;;;;26.77;18.00;;;21.10;99.90;;;;;;5014520;28;20450;-77
2022/08/19 00:22:06;;;;;;;25.25;17.15;;;21.10;99.90;;;;;;5014103;28;21098;-77
2022/08/19 00:24:32;;;;;;;22.17;17.20;;;21.10;99.90;;;;;;5014339;28;20932;-77
2022/08/19 00:27:01;;;;;;;23.70;16.90;;;21.10;99.90;;;;;;5013668;28;20512;-77
2022/08/19 00:29:30;;;;;;;27.77;17.67;;;21.10;99.90;;;;;;5014041;28;20470;-77
2022/08/19 00:31:58;;;;;;;24.97;16.30;;;21.10;99.90;;;;;;5014093;28;20601;-77
2022/08/19 00:34:26;;;;;;;25.90;16.50;;;21.20;99.90;;;;;;5014295;28;21136;-77
2022/08/19 00:36:52;;;;;;;22.23;16.40;;;21.10;99.90;;;;;;5013809;28;20208;-77
2022/08/19 00:39:19;;;;;;;24.37;17.07;;;21.10;99.90;;;;;;5013919;28;20524;-76
2022/08/19 00:41:47;;;;;;;25.90;17.30;;;21.10;99.90;;;;;;5013879;28;20528;-77
2022/08/19 00:44:16;;;;;;;24.73;16.23;;;21.10;99.90;;;;;;5014062;28;20546;-77
2022/08/19 00:46:47;;;;;;;27.60;17.60;;;21.10;99.90;;;;;;5013549;28;20541;-77
2022/08/19 00:49:19;;;;;;;22.37;17.50;;;21.00;99.90;;;;;;5013933;28;20456;-77
2022/08/19 00:51:49;;;;;;;25.67;16.90;;;21.00;99.90;;;;;;5013684;28;20487;-77
2022/08/19 00:54:16;;;;;;;24.57;16.53;;;21.00;99.90;;;;;;5014028;28;20481;-77
2022/08/19 00:56:44;;;;;;;26.73;18.10;;;21.00;99.90;;;;;;5013546;28;20505;-77
2022/08/19 00:59:11;;;;;;;21.90;16.10;;;21.00;99.90;;;;;;5013762;28;20211;-77
2022/08/19 01:01:38;;;;;;;23.37;16.60;;;21.00;99.90;;;;;;5013710;28;20262;-77
2022/08/19 01:04:07;;;;;;;25.10;16.47;;;21.00;99.90;;;;;;5013585;28;20463;-77
2022/08/19 01:06:36;;;;;;;23.27;16.73;;;20.90;99.90;;;;;;5013012;28;20513;-77
2022/08/19 01:09:02;;;;;;;26.60;17.70;;;20.90;99.90;;;;;;5013578;28;20469;-77
2022/08/19 01:11:32;;;;;;;25.50;16.63;;;20.90;99.90;;;;;;5013678;28;20514;-77
2022/08/19 01:13:59;;;;;;;23.60;17.40;;;20.90;99.90;;;;;;5013447;28;20534;-77
2022/08/19 01:16:29;;;;;;;23.33;16.47;;;20.90;99.90;;;;;;5012894;28;20478;-77
2022/08/19 01:18:56;;;;;;;25.77;17.50;;;20.80;99.90;;;;;;5012962;28;20500;-77
2022/08/19 01:21:31;;;;;;;22.77;16.38;;;20.80;99.90;;;;;;5013334;28;20986;-77
2022/08/19 01:24:00;;;;;;;25.10;17.10;;;20.80;99.90;;;;;;5013380;28;20517;-77
2022/08/19 01:26:28;;;;;;;27.87;16.10;;;20.80;99.90;;;;;;5012931;28;20461;-77
2022/08/19 01:28:57;;;;;;;22.83;16.80;;;20.80;99.90;;;;;;5013184;28;20454;-77
2022/08/19 01:31:26;;;;;;;24.00;17.60;;;20.80;99.90;;;;;;5012770;28;20281;-78
2022/08/19 01:33:55;;;;;;;20.53;15.67;;;20.80;99.90;;;;;;5012346;28;20875;-77
2022/08/19 01:36:26;;;;;;;21.27;16.50;;;20.70;99.90;;;;;;5012803;28;20512;-77
2022/08/19 01:38:53;;;;;;;22.63;16.17;;;20.70;99.90;;;;;;5012939;28;20458;-77
2022/08/19 01:41:23;;;;;;;21.03;15.80;;;20.80;99.90;;;;;;5012616;28;21024;-77
2022/08/19 01:43:50;;;;;;;21.90;15.30;;;20.80;99.90;;;;;;5012646;28;20457;-77
2022/08/19 01:46:16;;;;;;;23.80;15.40;;;20.70;99.90;;;;;;5012569;28;20451;-77
2022/08/19 01:48:44;;;;;;;19.87;14.80;;;20.70;99.90;;;;;;5012554;28;20442;-78
2022/08/19 01:51:12;;;;;;;19.38;14.82;;;20.70;99.90;;;;;;5012638;28;20862;-77
2022/08/19 01:53:39;;;;;;;20.80;15.13;;;20.70;99.90;;;;;;5012741;28;20267;-77
2022/08/19 01:56:07;;;;;;;22.93;14.90;;;20.70;99.90;;;;;;5012401;28;20521;-77
2022/08/19 01:58:38;;;;;;;19.40;14.50;;;20.70;99.90;;;;;;5012359;28;20458;-77
2022/08/19 02:01:06;;;;;;;19.33;15.00;;;20.60;99.90;;;;;;5012644;28;20463;-77
2022/08/19 02:03:34;;;;;;;20.87;14.13;;;20.60;99.90;;;;;;5012813;28;20512;-77
2022/08/19 02:06:04;;;;;;;20.63;15.13;;;20.60;99.90;;;;;;5012318;28;20481;-77
2022/08/19 02:08:32;;;;;;;19.70;14.43;;;20.60;99.90;;;;;;5012209;28;20624;-77
2022/08/19 02:10:58;;;;;;;21.07;14.50;;;20.50;99.90;;;;;;5012431;28;20443;-77
2022/08/19 02:13:27;;;;;;;21.97;15.43;;;20.50;99.90;;;;;;5012528;28;20451;-77
2022/08/19 02:15:55;;;;;;;21.13;14.13;;;20.50;99.90;;;;;;5012519;28;20510;-77
2022/08/19 02:18:21;;;;;;;23.87;14.60;;;20.40;99.90;;;;;;5012298;28;20447;-78
2022/08/19 02:20:48;;;;;;;21.37;14.10;;;20.40;99.90;;;;;;5012308;28;20451;-77
2022/08/19 02:23:16;;;;;;;18.83;14.70;;;20.30;99.90;;;;;;5012029;28;20999;-77
2022/08/19 02:25:44;;;;;;;18.33;13.97;;;20.30;99.90;;;;;;5011824;28;20446;-77
2022/08/19 02:28:11;;;;;;;18.77;15.00;;;20.30;99.90;;;;;;5012206;28;20473;-77
2022/08/19 02:30:38;;;;;;;20.13;15.10;;;20.20;99.90;;;;;;5012380;28;20214;-77
2022/08/19 02:33:06;;;;;;;19.63;14.70;;;20.30;99.90;;;;;;5012082;28;20442;-77
2022/08/19 02:35:33;;;;;;;17.48;13.90;;;20.20;99.90;;;;;;5011928;28;20446;-77
2022/08/19 02:40:51;;;;;;;21.63;13.23;;;20.20;99.90;;;;;;5012264;28;20462;-77
2022/08/19 02:43:19;;;;;;;19.80;13.70;;;20.20;99.90;;;;;;5012006;28;20462;-77
2022/08/19 02:45:48;;;;;;;25.40;14.10;;;20.20;99.90;;;;;;5012058;28;20453;-77
2022/08/19 02:48:17;;;;;;;21.53;14.33;;;20.20;99.90;;;;;;5015916;28;20497;-77
2022/08/19 02:50:44;;;;;;;23.50;14.47;;;20.20;99.90;;;;;;5015826;28;20946;-77
2022/08/19 02:53:11;;;;;;;23.13;15.00;;;20.20;99.90;;;;;;5016035;28;20445;-77
2022/08/19 02:55:44;;;;;;;18.00;14.57;;;20.20;99.90;;;;;;5016056;28;20429;-77
2022/08/19 02:58:11;;;;;;;36.73;15.33;;;20.20;99.90;;;;;;5015866;28;20825;-77
2022/08/19 03:00:43;;;;;;;21.73;15.10;;;20.20;99.90;;;;;;5015901;28;20524;-77
2022/08/19 03:03:10;;;;;;;28.73;14.70;;;20.10;99.90;;;;;;5015731;28;20444;-77
2022/08/19 03:05:38;;;;;;;23.83;15.10;;;20.10;99.90;;;;;;5015923;28;20285;-77
2022/08/19 03:08:05;;;;;;;22.10;13.50;;;20.10;99.90;;;;;;5015933;28;20489;-77
2022/08/19 03:10:32;;;;;;;24.83;14.60;;;20.10;99.90;;;;;;5015750;28;20966;-77
2022/08/19 03:12:58;;;;;;;19.95;13.73;;;20.00;99.90;;;;;;5015975;28;20466;-77
2022/08/19 03:15:26;;;;;;;17.73;13.50;;;19.90;99.90;;;;;;5015659;28;20257;-77
2022/08/19 03:17:52;;;;;;;20.97;13.70;;;20.00;99.90;;;;;;5015366;28;20426;-76
2022/08/19 03:20:19;;;;;;;18.27;13.73;;;19.90;99.90;;;;;;5015800;28;20454;-76
2022/08/19 03:22:47;;;;;;;17.90;13.57;;;20.00;99.90;;;;;;5015384;28;20822;-77
2022/08/19 03:25:14;;;;;;;17.60;13.17;;;20.00;99.90;;;;;;5015240;28;20426;-76
2022/08/19 03:27:40;;;;;;;22.20;13.87;;;20.00;99.90;;;;;;5015281;28;20522;-76
2022/08/19 03:30:08;;;;;;;20.13;14.00;;;20.00;99.90;;;;;;5015635;28;20455;-76
2022/08/19 03:32:35;;;;;;;17.17;14.20;;;20.00;99.90;;;;;;5015429;28;20488;-76
2022/08/19 03:35:02;;;;;;;24.67;15.33;;;20.10;99.90;;;;;;5014958;28;20425;-77
2022/08/19 03:37:29;;;;;;;18.97;13.47;;;20.10;99.90;;;;;;5015131;28;21011;-77
2022/08/19 03:39:57;;;;;;;18.38;13.35;;;20.10;99.90;;;;;;5015562;28;20460;-77
2022/08/19 03:42:24;;;;;;;18.80;13.83;;;20.10;99.90;;;;;;5014963;28;20228;-77
2022/08/19 03:44:52;;;;;;;19.43;14.50;;;20.00;99.90;;;;;;5014532;28;20802;-77
2022/08/19 03:47:19;;;;;;;18.60;14.43;;;20.00;99.90;;;;;;5015023;28;20496;-77
2022/08/19 03:49:46;;;;;;;18.60;13.20;;;20.00;99.90;;;;;;5015157;28;20263;-77
2022/08/19 03:52:13;;;;;;;21.53;14.37;;;20.00;99.90;;;;;;5014913;28;20482;-77
2022/08/19 03:54:40;;;;;;;20.17;15.00;;;20.10;99.90;;;;;;5014834;28;20425;-77
2022/08/19 03:57:08;;;;;;;18.13;14.43;;;20.00;99.90;;;;;;5014195;28;20841;-77
2022/08/19 03:59:37;;;;;;;18.07;13.37;;;19.90;99.90;;;;;;5014538;28;20427;-77
2022/08/19 04:02:08;;;;;;;18.00;13.60;;;19.90;99.90;;;;;;5014859;28;20471;-77
2022/08/19 04:04:35;;;;;;;21.37;14.97;;;19.80;99.90;;;;;;5014561;28;20797;-77
2022/08/19 04:07:02;;;;;;;18.73;14.80;;;19.90;99.90;;;;;;5014407;28;20484;-77
2022/08/19 04:09:28;;;;;;;22.30;13.98;;;19.80;99.90;;;;;;5014517;28;20995;-77
2022/08/19 04:11:57;;;;;;;20.57;14.83;;;19.80;99.90;;;;;;5014229;28;20286;-77
2022/08/19 04:14:29;;;;;;;20.67;14.63;;;19.80;99.90;;;;;;5014580;28;20430;-77
2022/08/19 04:16:57;;;;;;;19.30;13.97;;;19.80;99.90;;;;;;5014536;28;20511;-77
2022/08/19 04:19:23;;;;;;;19.40;12.50;;;19.70;99.90;;;;;;5014214;28;20484;-77
2022/08/19 04:21:52;;;;;;;19.17;14.03;;;19.70;99.90;;;;;;5014286;28;20517;-77
2022/08/19 04:24:20;;;;;;;18.60;13.93;;;19.70;99.90;;;;;;5014098;28;20447;-77
2022/08/19 04:26:47;;;;;;;22.50;14.37;;;19.70;99.90;;;;;;5014213;28;20454;-77
2022/08/19 04:29:17;;;;;;;17.63;13.50;;;19.70;99.90;;;;;;5014198;28;20559;-77
2022/08/19 04:31:46;;;;;;;18.40;14.00;;;19.70;99.90;;;;;;5014179;28;20454;-77
2022/08/19 04:34:16;;;;;;;19.80;14.33;;;19.60;99.90;;;;;;5014069;28;20433;-77
2022/08/19 04:36:45;;;;;;;19.83;13.43;;;19.60;99.90;;;;;;5013778;28;20505;-77
2022/08/19 04:39:13;;;;;;;16.27;13.02;;;19.60;99.90;;;;;;5013881;28;20429;-77
2022/08/19 04:44:25;;;;;;;19.27;15.10;;;19.60;99.90;;;;;;5013885;28;20493;-77
2022/08/19 04:46:53;;;;;;;18.10;14.00;;;19.60;99.90;;;;;;5013591;28;21016;-77
2022/08/19 04:49:22;;;;;;;24.47;14.47;;;19.60;99.90;;;;;;5013571;28;20232;-77
2022/08/19 04:51:51;;;;;;;17.00;13.90;;;19.50;99.90;;;;;;5013608;28;20986;-77
2022/08/19 04:54:20;;;;;;;19.77;14.10;;;19.60;99.90;;;;;;5013885;28;20430;-77
2022/08/19 04:56:49;;;;;;;21.90;14.70;;;19.50;99.90;;;;;;5013674;28;20438;-77
2022/08/19 04:59:16;;;;;;;18.50;14.37;;;19.50;99.90;;;;;;5013486;28;20428;-77
2022/08/19 05:01:43;;;;;;;17.17;13.80;;;19.60;99.90;;;;;;5013416;28;20496;-77
2022/08/19 05:04:12;;;;;;;18.40;13.83;;;19.60;99.90;;;;;;5013365;28;20845;-77
2022/08/19 05:06:40;;;;;;;21.20;13.83;;;19.60;99.90;;;;;;5013226;28;20940;-77
2022/08/19 05:09:07;;;;;;;17.83;13.33;;;19.60;99.90;;;;;;5012828;28;20868;-77
2022/08/19 05:11:38;;;;;;;16.50;13.40;;;19.60;99.90;;;;;;5013050;28;20444;-77
2022/08/19 05:14:06;;;;;;;19.38;13.38;;;19.60;99.90;;;;;;5013417;28;20454;-77
2022/08/19 05:16:32;;;;;;;20.80;14.50;;;19.60;99.90;;;;;;5012806;28;20204;-77
2022/08/19 05:24:30;;;;;;;19.43;14.30;;;19.80;99.90;;;;;;5013136;28;20407;-77
2022/08/19 05:26:57;;;;;;;17.17;12.93;;;19.90;99.90;;;;;;5012739;28;20496;-77
2022/08/19 05:29:27;;;;;;;26.42;13.23;;;19.90;99.90;;;;;;5013138;28;20489;-77
2022/08/19 05:31:54;;;;;;;16.97;12.73;;;20.00;99.90;;;;;;5012771;28;20737;-77
2022/08/19 05:34:24;;;;;;;17.33;13.00;;;20.10;99.90;;;;;;5013096;28;20426;-77
2022/08/19 05:36:56;;;;;;;20.20;14.10;;;20.20;99.90;;;;;;5012610;28;20432;-77
2022/08/19 05:39:25;;;;;;;17.80;13.10;;;20.30;99.90;;;;;;5012670;28;20539;-77
2022/08/19 05:41:54;;;;;;;14.50;12.27;;;20.50;99.90;;;;;;5012683;28;20483;-77
2022/08/19 05:44:21;;;;;;;18.30;12.53;;;20.80;99.90;;;;;;5012844;28;20459;-77
2022/08/19 05:46:48;;;;;;;17.83;13.43;;;21.00;99.90;;;;;;5012476;28;20462;-77
2022/08/19 05:49:16;;;;;;;13.37;11.10;;;21.30;99.90;;;;;;5012710;28;20257;-77
2022/08/19 05:51:44;;;;;;;20.43;12.20;;;21.50;99.90;;;;;;5012290;28;20490;-77
2022/08/19 05:54:13;;;;;;;16.65;11.77;;;21.80;99.90;;;;;;5012820;28;20958;-77
2022/08/19 05:56:40;;;;;;;21.13;11.30;;;22.00;99.90;;;;;;5012404;28;20222;-77
2022/08/19 05:59:10;;;;;;;13.57;11.07;;;22.30;99.90;;;;;;5012635;28;20447;-77
2022/08/19 06:01:39;;;;;;;15.73;10.82;;;22.50;99.90;;;;;;5012413;28;20474;-78
2022/08/19 06:04:06;;;;;;;17.17;10.17;;;22.70;99.90;;;;;;5012674;28;20212;-78
2022/08/19 06:06:34;;;;;;;14.33;10.37;;;22.90;99.90;;;;;;5012172;28;20489;-78
2022/08/19 06:09:01;;;;;;;10.10;9.10;;;23.00;99.90;;;;;;5012528;28;20546;-77
2022/08/19 06:11:36;;;;;;;13.27;10.10;;;23.10;99.90;;;;;;5012347;28;20525;-77
2022/08/19 06:14:07;;;;;;;12.47;9.40;;;23.20;99.90;;;;;;5012559;28;20454;-78
2022/08/19 06:16:34;;;;;;;19.63;9.30;;;23.40;99.90;;;;;;5012141;28;20469;-78
2022/08/19 06:19:05;;;;;;;13.73;9.40;;;23.50;99.90;;;;;;5012296;28;20819;-77
2022/08/19 06:21:31;;;;;;;13.57;8.57;;;23.70;99.90;;;;;;5012478;28;20482;-78
2022/08/19 06:23:59;;;;;;;11.57;8.30;;;23.90;99.90;;;;;;5012296;28;20665;-78
2022/08/19 06:26:27;;;;;;;15.10;9.27;;;24.10;99.90;;;;;;5011894;28;20870;-78
2022/08/19 06:28:55;;;;;;;11.60;8.40;;;24.20;99.90;;;;;;5012023;28;20494;-78
2022/08/19 06:31:24;;;;;;;8.90;8.05;;;24.30;99.90;;;;;;5011769;28;20467;-78
2022/08/19 06:33:50;;;;;;;10.67;9.00;;;24.50;99.90;;;;;;5012046;28;20573;-78
2022/08/19 06:36:20;;;;;;;12.27;8.18;;;24.50;99.90;;;;;;5012042;28;20504;-78
2022/08/19 06:38:46;;;;;;;11.07;9.00;;;24.30;99.90;;;;;;5012063;28;20203;-78
2022/08/19 06:41:13;;;;;;;10.47;8.73;;;24.20;99.90;;;;;;5011703;28;20446;-78
2022/08/19 06:43:41;;;;;;;10.43;8.67;;;24.20;99.90;;;;;;5011924;28;20497;-77
2022/08/19 06:46:13;;;;;;;9.50;8.37;;;24.20;99.90;;;;;;5011458;28;20991;-78
2022/08/19 06:48:40;;;;;;;11.17;8.20;;;24.10;99.90;;;;;;5012055;28;20636;-78
2022/08/19 06:51:06;;;;;;;10.48;8.13;;;24.20;99.90;;;;;;5011781;28;20513;-78
2022/08/19 06:53:33;;;;;;;10.80;8.30;;;24.10;99.90;;;;;;5011961;28;20212;-78
2022/08/19 06:56:02;;;;;;;11.60;7.40;;;24.00;99.90;;;;;;5011585;28;20489;-78
2022/08/19 06:58:31;;;;;;;12.77;8.20;;;24.10;99.90;;;;;;5011887;28;20459;-78
2022/08/19 07:01:00;;;;;;;8.17;6.97;;;24.10;99.90;;;;;;5011563;28;20943;-79
2022/08/19 07:03:30;;;;;;;13.87;7.90;;;24.30;99.90;;;;;;5012400;28;20463;-78
2022/08/19 07:05:58;;;;;;;9.23;6.78;;;24.40;99.90;;;;;;5013306;28;20832;-78
2022/08/19 07:08:26;;;;;;;9.27;7.10;;;24.50;99.90;;;;;;5011764;28;20273;-78
2022/08/19 07:10:54;;;;;;;9.07;6.60;;;24.60;99.90;;;;;;5011643;28;20459;-77
2022/08/19 07:13:21;;;;;;;8.90;6.27;;;24.60;99.90;;;;;;5011563;28;20532;-78
2022/08/19 07:15:49;;;;;;;7.40;6.10;;;24.80;99.90;;;;;;5011463;28;20537;-77
2022/08/19 07:18:17;;;;;;;9.87;6.87;;;25.00;99.90;;;;;;5012100;28;20459;-77
2022/08/19 07:20:45;;;;;;;9.53;5.97;;;25.20;99.90;;;;;;5011511;28;20462;-77
2022/08/19 07:23:12;;;;;;;6.70;5.53;;;25.30;99.90;;;;;;5011559;28;20959;-77
2022/08/19 07:25:39;;;;;;;8.70;6.10;;;25.40;99.90;;;;;;5011059;28;20443;-77
2022/08/19 07:28:07;;;;;;;10.10;5.90;;;25.50;99.90;;;;;;5011590;28;20454;-77
2022/08/19 07:30:36;;;;;;;8.57;6.00;;;25.60;99.90;;;;;;5011710;28;20451;-77
2022/08/19 07:33:03;;;;;;;7.27;5.50;;;25.90;99.90;;;;;;5013447;28;20893;-77
2022/08/19 07:35:31;;;;;;;9.23;5.97;;;26.00;99.90;;;;;;5015056;28;20451;-77
2022/08/19 07:38:02;;;;;;;7.23;5.77;;;26.10;99.90;;;;;;5015072;28;20560;-77
2022/08/19 07:40:29;;;;;;;7.80;5.50;;;26.10;99.90;;;;;;5015060;28;20447;-77
2022/08/19 07:42:55;;;;;;;6.30;5.70;;;26.10;99.90;;;;;;5015002;28;20471;-77
2022/08/19 07:45:22;;;;;;;6.80;5.00;;;26.20;99.90;;;;;;5015239;28;20454;-77
2022/08/19 07:47:49;;;;;;;7.57;5.37;;;26.40;99.90;;;;;;5014744;28;20943;-77
2022/08/19 07:50:18;;;;;;;5.80;5.30;;;26.50;99.90;;;;;;5014640;28;20487;-77
2022/08/19 07:52:45;;;;;;;7.67;5.60;;;26.60;99.90;;;;;;5014697;28;20239;-77
2022/08/19 07:55:13;;;;;;;10.50;5.53;;;26.70;99.90;;;;;;5014804;28;20462;-77
2022/08/19 07:57:39;;;;;;;6.80;5.40;;;26.70;99.90;;;;;;5014816;28;20528;-77
2022/08/19 08:00:08;;;;;;;9.90;6.30;;;26.80;99.90;;;;;;5014815;28;20204;-78
2022/08/19 08:02:34;;;;;;;10.90;6.77;;;26.80;99.90;;;;;;5014492;28;20474;-77
2022/08/19 08:10:30;;;;;;;9.93;7.77;;;26.80;99.90;;;;;;5016155;28;20429;-76
2022/08/19 08:12:57;;;;;;;12.50;8.57;;;27.00;99.90;;;;;;5014128;28;20917;-76
2022/08/19 08:15:24;;;;;;;7.20;6.50;;;26.90;99.90;;;;;;5014523;28;20814;-76
2022/08/19 08:17:50;;;;;;;8.10;6.97;;;26.80;99.90;;;;;;5014148;28;20959;-77
2022/08/19 08:20:18;;;;;;;12.80;7.43;;;26.70;99.90;;;;;;5014498;28;20509;-77
2022/08/19 08:25:32;;;;;;;11.20;6.97;;;26.60;99.90;;;;;;5014405;28;20429;-77
2022/08/19 08:28:00;;;;;;;7.30;6.60;;;26.90;99.90;;;;;;5014136;28;20450;-77
2022/08/19 08:30:28;;;;;;;10.00;6.90;;;27.00;99.90;;;;;;5013980;28;20490;-77
2022/08/19 08:32:55;;;;;;;8.10;6.63;;;27.20;99.90;;;;;;5014012;28;20510;-77
2022/08/19 08:35:24;;;;;;;9.13;6.60;;;27.20;99.90;;;;;;5014023;28;20462;-77
2022/08/19 08:37:53;;;;;;;14.53;7.87;;;27.30;99.90;;;;;;5014163;28;20500;-78
2022/08/19 08:40:27;;;;;;;8.17;7.37;;;27.40;99.90;;;;;;5013971;28;20462;-78
2022/08/19 08:43:02;;;;;;;11.33;6.60;;;27.30;99.90;;;;;;5013464;28;20813;-78
2022/08/19 08:45:31;;;;;;;8.40;7.13;;;27.30;99.90;;;;;;5013139;28;20469;-78
2022/08/19 08:48:04;;;;;;;9.80;6.50;;;27.40;99.90;;;;;;5013942;28;20455;-78
2022/08/19 08:50:36;;;;;;;12.27;6.87;;;27.40;99.90;;;;;;5013878;28;20490;-78
2022/08/19 08:53:06;;;;;;;7.10;6.40;;;27.40;99.90;;;;;;5013452;28;20891;-78
2022/08/19 08:55:33;;;;;;;7.63;6.30;;;27.70;99.90;;;;;;5013722;28;20581;-78
2022/08/19 08:58:05;;;;;;;9.50;7.30;;;28.00;99.90;;;;;;5013694;28;20866;-78
2022/08/19 09:00:35;;;;;;;12.73;6.53;;;28.10;99.90;;;;;;5013976;28;20446;-78
2022/08/19 09:03:05;;;;;;;12.07;7.63;;;28.40;99.90;;;;;;5013551;28;20467;-78
2022/08/19 09:05:43;;;;;;;7.57;6.30;;;28.40;99.90;;;;;;5013413;28;20450;-78
2022/08/19 09:08:16;;;;;;;6.53;5.87;;;28.50;99.90;;;;;;5013980;28;20449;-77
2022/08/19 09:10:48;;;;;;;9.20;5.30;;;28.40;99.90;;;;;;5013396;28;20540;-78
2022/08/19 09:13:22;;;;;;;6.67;5.70;;;28.80;99.90;;;;;;5013514;28;20541;-78
2022/08/19 09:15:54;;;;;;;8.30;6.10;;;29.00;99.90;;;;;;5013179;28;20449;-78
2022/08/19 09:18:21;;;;;;;11.63;5.70;;;29.20;99.90;;;;;;5013183;28;20962;-78
2022/08/19 09:20:48;;;;;;;9.30;6.97;;;29.10;99.90;;;;;;5013408;28;20201;-78
2022/08/19 09:23:14;;;;;;;13.83;5.50;;;28.80;99.90;;;;;;5013294;28;20471;-78
2022/08/19 09:25:41;;;;;;;5.67;5.10;;;28.60;99.90;;;;;;5013034;28;20942;-77
2022/08/19 09:28:09;;;;;;;8.50;5.53;;;28.80;99.90;;;;;;5013204;28;20451;-78
2022/08/19 09:30:41;;;;;;;9.30;5.73;;;29.10;99.90;;;;;;5013523;28;20573;-77
2022/08/19 09:33:08;;;;;;;5.50;5.00;;;29.40;99.90;;;;;;5013205;28;20466;-77
2022/08/19 09:35:35;;;;;;;8.95;5.30;;;29.50;99.90;;;;;;5013055;28;20875;-77
2022/08/19 09:38:02;;;;;;;5.33;4.37;;;29.70;99.90;;;;;;5013028;28;20207;-79
2022/08/19 09:40:30;;;;;;;7.60;5.37;;;29.80;99.90;;;;;;5013554;28;20443;-80
2022/08/19 09:43:02;;;;;;;5.47;4.97;;;29.80;99.90;;;;;;5013241;28;20543;-80
2022/08/19 09:45:29;;;;;;;5.13;4.63;;;29.90;99.90;;;;;;5013256;28;20458;-80
2022/08/19 09:47:57;;;;;;;6.20;5.03;;;30.00;99.90;;;;;;5013297;28;20458;-79
2022/08/19 09:50:24;;;;;;;5.57;5.07;;;30.10;99.90;;;;;;5012988;28;20494;-80
2022/08/19 09:52:53;;;;;;;6.83;5.27;;;30.20;99.90;;;;;;5013373;28;20513;-80
2022/08/19 09:55:20;;;;;;;12.87;4.90;;;30.20;99.90;;;;;;5012602;28;20442;-79
2022/08/19 09:57:46;;;;;;;6.50;5.03;;;30.20;99.90;;;;;;5013048;28;20454;-81
2022/08/19 10:00:14;;;;;;;6.00;5.33;;;30.30;99.90;;;;;;5013287;28;20444;-80
2022/08/19 10:02:40;;;;;;;6.63;4.90;;;30.30;99.90;;;;;;5012672;28;20525;-79
2022/08/19 10:07:53;;;;;;;6.87;5.43;;;30.40;99.90;;;;;;5012650;28;20425;-81
2022/08/19 10:10:20;;;;;;;7.50;5.53;;;30.60;99.90;;;;;;5012476;28;20483;-79
2022/08/19 10:12:47;;;;;;;9.50;5.13;;;30.50;99.90;;;;;;5012546;28;20545;-79
2022/08/19 10:15:14;;;;;;;7.97;5.10;;;30.50;99.90;;;;;;5012810;28;20451;-80
2022/08/19 10:17:41;;;;;;;6.67;5.47;;;30.60;99.90;;;;;;5013163;28;20454;-79
2022/08/19 10:20:10;;;;;;;6.47;4.83;;;30.60;99.90;;;;;;5012567;28;20479;-79
2022/08/19 10:22:37;;;;;;;5.83;5.20;;;30.60;99.90;;;;;;5012849;28;20550;-80
2022/08/19 10:25:05;;;;;;;7.10;4.80;;;30.70;99.90;;;;;;5012319;28;20459;-80
2022/08/19 10:27:32;;;;;;;9.37;5.17;;;30.60;99.90;;;;;;5013306;28;20451;-80
2022/08/19 10:29:58;;;;;;;5.00;4.00;;;30.40;99.90;;;;;;5012775;28;20501;-80
2022/08/19 10:32:25;;;;;;;5.23;4.80;;;30.00;99.90;;;;;;5012288;28;20478;-79
2022/08/19 10:34:52;;;;;;;5.57;5.07;;;30.00;99.90;;;;;;5011860;28;21057;-79
2022/08/19 10:37:20;;;;;;;5.10;4.60;;;29.90;99.90;;;;;;5011816;28;20978;-80
2022/08/19 10:39:48;;;;;;;5.40;4.90;;;29.90;99.90;;;;;;5012173;28;20501;-79
2022/08/19 10:42:16;;;;;;;5.47;5.07;;;29.90;99.90;;;;;;5011848;28;20994;-79
2022/08/19 10:44:43;;;;;;;7.37;5.23;;;29.80;99.90;;;;;;5012075;28;20885;-79
2022/08/19 10:47:10;;;;;;;5.70;5.05;;;29.70;99.90;;;;;;5012300;28;20450;-79
2022/08/19 10:52:33;;;;;;;5.40;5.00;;;29.60;99.90;;;;;;5011898;28;20297;-79
2022/08/19 10:52:33;;;;;;;7.28;5.72;;;29.50;99.90;;;;;;5012047;28;20801;-79
2022/08/19 10:57:44;;;;;;;7.10;5.32;;;29.70;99.90;;;;;;5011968;28;20436;-79
2022/08/19 11:00:14;;;;;;;7.07;5.80;;;29.80;99.90;;;;;;5011784;28;20212;-79
2022/08/19 11:02:41;;;;;;;5.30;4.88;;;29.90;99.90;;;;;;5012201;28;20565;-79
2022/08/19 11:05:10;;;;;;;10.93;5.47;;;29.80;99.90;;;;;;5011644;28;20579;-79
2022/08/19 11:07:38;;;;;;;6.17;5.57;;;29.70;99.90;;;;;;5013668;28;20550;-80
2022/08/19 11:10:06;;;;;;;6.97;5.63;;;29.70;99.90;;;;;;5015776;28;20482;-80
2022/08/19 11:12:33;;;;;;;7.00;6.30;;;29.60;99.90;;;;;;5015703;28;20473;-79
2022/08/19 11:15:00;;;;;;;9.13;6.80;;;29.50;99.90;;;;;;5015249;28;20828;-80
2022/08/19 11:17:26;;;;;;;7.87;7.07;;;29.40;99.90;;;;;;5015911;28;20514;-79
2022/08/19 11:19:53;;;;;;;6.80;6.17;;;29.60;99.90;;;;;;5015394;28;20454;-79
2022/08/19 11:22:19;;;;;;;7.77;6.97;;;29.90;99.90;;;;;;5015473;28;20529;-79
2022/08/19 11:24:47;;;;;;;7.90;7.20;;;30.20;99.90;;;;;;5015438;28;20450;-79
2022/08/19 11:27:14;;;;;;;8.63;7.73;;;30.20;99.90;;;;;;5015590;28;20459;-80
2022/08/19 11:29:41;;;;;;;7.40;6.60;;;30.00;99.90;;;;;;5015500;28;20517;-79
2022/08/19 11:32:11;;;;;;;8.17;6.67;;;29.80;99.90;;;;;;5015536;28;20477;-79
2022/08/19 11:34:38;;;;;;;9.30;7.93;;;30.10;99.90;;;;;;5015145;28;20931;-79
2022/08/19 11:37:05;;;;;;;10.63;7.40;;;30.60;99.90;;;;;;5015079;28;20212;-81
2022/08/19 11:39:35;;;;;;;9.93;6.47;;;31.10;99.90;;;;;;5015165;28;20504;-79
2022/08/19 11:42:54;;;;;;;8.10;6.20;;;31.30;99.90;;;;;;5015417;28;20514;-79
2022/08/19 11:44:51;;;;;;;6.23;5.80;;;31.20;99.90;;;;;;5014963;28;20532;-79
2022/08/19 11:47:18;;;;;;;7.27;6.10;;;31.40;99.90;;;;;;5015109;28;20524;-79
2022/08/19 11:49:44;;;;;;;6.50;5.90;;;31.60;99.90;;;;;;5014764;28;20485;-79
2022/08/19 11:52:11;;;;;;;7.13;5.23;;;31.50;99.60;;;;;;5014647;28;20482;-78
2022/08/19 11:54:37;;;;;;;5.87;5.30;;;31.30;99.90;;;;;;5014857;28;20887;-79
2022/08/19 11:57:06;;;;;;;6.70;5.30;;;31.10;99.90;;;;;;5014749;28;20879;-80
2022/08/19 11:59:32;;;;;;;8.83;5.40;;;31.30;99.90;;;;;;5014925;28;20210;-80
2022/08/19 12:01:59;;;;;;;6.53;5.90;;;31.60;99.40;;;;;;5014575;28;20475;-79
2022/08/19 12:04:26;;;;;;;8.63;7.50;;;31.60;99.10;;;;;;5014604;28;20458;-79
2022/08/19 12:06:53;;;;;;;9.73;7.63;;;31.30;98.40;;;;;;5014200;28;20500;-79
2022/08/19 12:09:19;;;;;;;9.40;8.45;;;31.10;98.80;;;;;;5014655;28;20453;-79
2022/08/19 12:11:46;;;;;;;8.70;7.60;;;31.10;98.00;;;;;;5014713;28;20278;-79
2022/08/19 12:14:15;;;;;;;7.50;6.63;;;31.20;98.10;;;;;;5014386;28;20474;-79
2022/08/19 12:16:41;;;;;;;6.47;5.90;;;31.10;98.40;;;;;;5014319;28;20459;-79
2022/08/19 12:19:08;;;;;;;8.23;6.63;;;31.40;98.00;;;;;;5014296;28;20485;-79
2022/08/19 12:21:36;;;;;;;6.95;5.68;;;31.10;97.80;;;;;;5014053;28;20281;-79
2022/08/19 12:24:05;;;;;;;5.90;5.40;;;30.60;98.70;;;;;;5014671;28;20215;-79
2022/08/19 12:26:32;;;;;;;6.10;5.50;;;30.40;98.90;;;;;;5014029;28;20451;-79
2022/08/19 12:28:59;;;;;;;7.17;6.57;;;30.60;99.80;;;;;;5014355;28;20455;-79
2022/08/19 12:31:28;;;;;;;7.40;6.80;;;31.10;98.10;;;;;;5014378;28;20742;-79
2022/08/19 12:33:55;;;;;;;6.83;6.27;;;31.60;97.50;;;;;;5014101;28;20450;-79
2022/08/19 12:36:22;;;;;;;7.73;6.90;;;31.70;97.00;;;;;;5013941;28;20447;-79
2022/08/19 12:38:49;;;;;;;8.27;7.53;;;31.30;96.80;;;;;;5014161;28;20455;-79
2022/08/19 12:41:18;;;;;;;9.57;7.57;;;31.00;97.70;;;;;;5014038;28;20517;-78
2022/08/19 12:43:45;;;;;;;19.50;7.73;;;30.50;97.90;;;;;;5014006;28;20497;-79
2022/08/19 12:46:12;;;;;;;8.77;7.73;;;30.20;98.50;;;;;;5013631;28;20870;-79
2022/08/19 12:48:42;;;;;;;10.60;8.50;;;29.90;98.90;;;;;;5013783;28;20824;-79
2022/08/19 12:51:11;;;;;;;19.33;9.15;;;29.70;99.00;;;;;;5013477;28;20577;-79
2022/08/19 12:53:39;;;;;;;9.15;8.27;;;29.60;99.20;;;;;;5013703;28;20731;-79
2022/08/19 12:56:06;;;;;;;11.70;8.47;;;29.80;99.60;;;;;;5013350;28;20258;-79
2022/08/19 12:58:34;;;;;;;9.40;8.50;;;30.10;98.90;;;;;;5013659;28;20454;-79
2022/08/19 13:01:01;;;;;;;11.77;8.40;;;30.20;98.30;;;;;;5013163;28;20542;-80
2022/08/19 13:03:29;;;;;;;9.25;8.13;;;30.30;98.80;;;;;;5013743;28;20450;-79